createdAt,value
2022-11-17T00:00:43.541Z,2.86
2022-11-17T00:03:15.772Z,2.76
2022-11-17T00:05:44.220Z,2.67
2022-11-17T00:08:12.225Z,2.60
2022-11-17T00:10:39.885Z,2.51
2022-11-17T00:13:26.711Z,2.42
2022-11-17T00:15:54.309Z,2.34
2022-11-17T00:18:38.122Z,2.28
2022-11-17T00:21:21.965Z,2.19
2022-11-17T00:23:50.536Z,2.12
2022-11-17T00:26:30.926Z,2.05
2022-11-17T00:29:04.489Z,1.98
2022-11-17T00:31:50.474Z,1.92
2022-11-17T00:34:23.142Z,1.87
2022-11-17T00:36:52.860Z,1.85
2022-11-17T00:39:23.014Z,1.84
2022-11-17T00:41:50.766Z,1.82
2022-11-17T00:44:18.582Z,1.79
2022-11-17T00:46:46.215Z,1.77
2022-11-17T00:49:14.553Z,1.75
2022-11-17T00:51:42.368Z,1.72
2022-11-17T00:54:12.032Z,1.69
2022-11-17T00:56:39.793Z,1.64
2022-11-17T00:59:07.504Z,1.59
2022-11-17T01:01:35.664Z,1.56
2022-11-17T01:04:04.478Z,1.51
2022-11-17T01:06:40.473Z,1.49
2022-11-17T01:09:15.889Z,1.49
2022-11-17T01:11:44.486Z,1.49
2022-11-17T01:14:15.925Z,1.49
2022-11-17T01:16:44.350Z,1.47
2022-11-17T01:19:14.019Z,1.45
2022-11-17T01:21:41.751Z,1.41
2022-11-17T01:24:11.546Z,1.37
2022-11-17T01:26:40.308Z,1.33
2022-11-17T01:29:10.798Z,1.30
2022-11-17T01:31:41.364Z,1.27
2022-11-17T01:34:09.220Z,1.26
2022-11-17T01:36:54.480Z,1.25
2022-11-17T01:39:24.467Z,1.24
2022-11-17T01:41:53.381Z,1.23
2022-11-17T01:44:50.209Z,1.20
2022-11-17T01:47:24.022Z,1.18
2022-11-17T01:49:56.398Z,1.13
2022-11-17T01:52:25.384Z,1.09
2022-11-17T01:54:55.386Z,1.06
2022-11-17T01:57:34.939Z,1.06
2022-11-17T02:00:07.216Z,1.05
2022-11-17T02:02:37.038Z,1.03
2022-11-17T02:05:30.310Z,1.01
2022-11-17T02:08:01.826Z,0.99
2022-11-17T02:10:32.094Z,0.95
2022-11-17T02:13:01.537Z,0.92
2022-11-17T02:15:30.275Z,0.88
2022-11-17T02:17:59.535Z,0.86
2022-11-17T02:20:41.497Z,0.84
2022-11-17T02:23:41.098Z,0.85
2022-11-17T02:26:40.567Z,0.84
2022-11-17T02:29:25.666Z,0.82
2022-11-17T02:32:00.719Z,0.79
2022-11-17T02:34:34.749Z,0.77
2022-11-17T02:37:34.282Z,0.74
2022-11-17T02:40:20.707Z,0.69
2022-11-17T02:43:18.130Z,0.65
2022-11-17T02:45:56.531Z,0.63
2022-11-17T02:48:44.918Z,0.61
2022-11-17T02:51:20.053Z,0.62
2022-11-17T02:53:50.027Z,0.64
2022-11-17T02:56:17.638Z,0.65
2022-11-17T02:58:48.347Z,0.66
2022-11-17T03:01:22.071Z,0.65
2022-11-17T03:04:20.574Z,0.63
2022-11-17T03:07:11.820Z,0.59
2022-11-17T03:09:55.385Z,0.55
2022-11-17T03:12:38.887Z,0.51
2022-11-17T03:15:22.424Z,0.47
2022-11-17T03:18:21.938Z,0.47
2022-11-17T03:21:09.641Z,0.48
2022-11-17T03:24:00.307Z,0.50
2022-11-17T03:26:34.352Z,0.51
2022-11-17T03:29:05.300Z,0.50
2022-11-17T03:31:35.207Z,0.47
2022-11-17T03:34:07.180Z,0.47
2022-11-17T03:36:39.659Z,0.46
2022-11-17T03:39:14.585Z,0.46
2022-11-17T03:41:47.075Z,0.45
2022-11-17T03:44:18.298Z,0.46
2022-11-17T03:46:49.024Z,0.49
2022-11-17T03:49:35.282Z,0.51
2022-11-17T03:52:04.025Z,0.52
2022-11-17T03:54:32.495Z,0.53
2022-11-17T03:57:02.747Z,0.54
2022-11-17T03:59:43.067Z,0.53
2022-11-17T04:02:18.418Z,0.53
2022-11-17T04:05:02.453Z,0.50
2022-11-17T04:07:30.145Z,0.47
2022-11-17T04:09:57.811Z,0.44
2022-11-17T04:12:41.412Z,0.42
2022-11-17T04:15:26.572Z,0.44
2022-11-17T04:17:55.195Z,0.46
2022-11-17T04:20:23.337Z,0.47
2022-11-17T04:23:07.084Z,0.50
2022-11-17T04:26:06.578Z,0.54
2022-11-17T04:28:39.583Z,0.57
2022-11-17T04:31:14.729Z,0.57
2022-11-17T04:33:45.259Z,0.58
2022-11-17T04:36:14.959Z,0.57
2022-11-17T04:38:50.544Z,0.56
2022-11-17T04:41:35.657Z,0.55
2022-11-17T04:44:04.867Z,0.55
2022-11-17T04:46:34.875Z,0.55
2022-11-17T04:49:04.425Z,0.57
2022-11-17T04:51:34.780Z,0.61
2022-11-17T04:54:05.047Z,0.65
2022-11-17T04:56:32.777Z,0.69
2022-11-17T04:59:00.430Z,0.72
2022-11-17T05:01:28.614Z,0.74
2022-11-17T05:04:01.803Z,0.74
2022-11-17T05:06:34.198Z,0.74
2022-11-17T05:09:07.677Z,0.74
2022-11-17T05:11:51.614Z,0.73
2022-11-17T05:14:21.995Z,0.71
2022-11-17T05:17:13.348Z,0.70
2022-11-17T05:19:46.575Z,0.70
2022-11-17T05:22:38.275Z,0.71
2022-11-17T05:25:06.944Z,0.74
2022-11-17T05:27:34.914Z,0.75
2022-11-17T05:30:05.388Z,0.76
2022-11-17T05:32:32.952Z,0.76
2022-11-17T05:35:00.549Z,0.76
2022-11-17T05:37:28.283Z,0.75
2022-11-17T05:39:55.875Z,0.72
2022-11-17T05:42:23.462Z,0.71
2022-11-17T05:44:51.097Z,0.71
2022-11-17T05:47:18.699Z,0.71
2022-11-17T05:49:46.284Z,0.72
2022-11-17T05:52:13.945Z,0.74
2022-11-17T05:54:41.532Z,0.77
2022-11-17T05:57:16.769Z,0.81
2022-11-17T05:59:50.468Z,0.86
2022-11-17T06:02:29.265Z,0.92
2022-11-17T06:04:56.876Z,0.96
2022-11-17T06:07:24.600Z,0.99
2022-11-17T06:09:53.211Z,1.01
2022-11-17T06:12:20.794Z,1.05
2022-11-17T06:14:48.381Z,1.09
2022-11-17T06:17:23.091Z,1.10
2022-11-17T06:20:02.895Z,1.12
2022-11-17T06:22:31.785Z,1.16
2022-11-17T06:25:00.820Z,1.19
2022-11-17T06:27:31.935Z,1.23
2022-11-17T06:30:03.560Z,1.29
2022-11-17T06:32:34.189Z,1.38
2022-11-17T06:35:04.519Z,1.47
2022-11-17T06:37:32.164Z,1.52
2022-11-17T06:40:02.752Z,1.59
2022-11-17T06:42:47.640Z,1.64
2022-11-17T06:45:18.575Z,1.67
2022-11-17T06:47:46.156Z,1.71
2022-11-17T06:50:14.857Z,1.73
2022-11-17T06:52:42.478Z,1.73
2022-11-17T06:55:10.062Z,1.73
2022-11-17T06:57:37.703Z,1.73
2022-11-17T07:00:06.280Z,1.74
2022-11-17T07:02:33.992Z,1.75
2022-11-17T07:05:04.947Z,1.76
2022-11-17T07:07:32.696Z,1.77
2022-11-17T07:10:00.514Z,1.78
2022-11-17T07:12:28.124Z,1.77
2022-11-17T07:14:55.681Z,1.77
2022-11-17T07:17:23.241Z,1.79
2022-11-17T07:19:50.793Z,1.81
2022-11-17T07:22:18.547Z,1.83
2022-11-17T07:24:46.119Z,1.85
2022-11-17T07:27:13.740Z,1.87
2022-11-17T07:29:41.450Z,1.88
2022-11-17T07:32:11.656Z,1.88
2022-11-17T07:34:40.171Z,1.88
2022-11-17T07:37:07.752Z,1.88
2022-11-17T07:39:35.350Z,1.88
2022-11-17T07:42:02.929Z,1.88
2022-11-17T07:44:31.190Z,1.88
2022-11-17T07:46:58.861Z,1.89
2022-11-17T07:49:27.836Z,1.91
2022-11-17T07:51:55.546Z,1.93
2022-11-17T07:54:23.178Z,1.93
2022-11-17T07:56:50.842Z,1.93
2022-11-17T07:59:21.480Z,1.93
2022-11-17T08:01:49.336Z,1.94
2022-11-17T08:04:22.423Z,1.95
2022-11-17T08:06:50.206Z,1.97
2022-11-17T08:09:17.814Z,2.01
2022-11-17T08:11:45.364Z,2.07
2022-11-17T08:14:14.302Z,2.09
2022-11-17T08:16:42.136Z,2.10
2022-11-17T08:19:17.018Z,2.12
2022-11-17T08:21:47.761Z,2.14
2022-11-17T08:24:16.301Z,2.16
2022-11-17T08:26:43.906Z,2.18
2022-11-17T08:29:11.477Z,2.20
2022-11-17T08:31:41.243Z,2.20
2022-11-17T08:34:08.853Z,2.24
2022-11-17T08:36:39.807Z,2.26
2022-11-17T08:39:07.504Z,2.25
2022-11-17T08:41:35.155Z,2.26
2022-11-17T08:44:04.956Z,2.26
2022-11-17T08:46:32.586Z,2.23
2022-11-17T08:49:01.108Z,2.20
2022-11-17T08:51:29.317Z,2.32
2022-11-17T08:53:59.519Z,2.39
2022-11-17T08:56:27.410Z,2.49
2022-11-17T08:58:55.358Z,2.57
2022-11-17T09:01:24.977Z,2.78
2022-11-17T09:03:52.519Z,2.95
2022-11-17T09:06:20.244Z,2.97
2022-11-17T09:08:48.755Z,2.95
2022-11-17T09:11:16.977Z,2.93
2022-11-17T09:13:46.668Z,2.92
2022-11-17T09:16:15.838Z,2.87
2022-11-17T09:18:44.319Z,2.80
2022-11-17T09:21:15.985Z,2.76
2022-11-17T09:23:43.714Z,2.72
2022-11-17T09:26:13.732Z,2.69
2022-11-17T09:28:42.566Z,2.66
2022-11-17T09:31:13.149Z,2.61
2022-11-17T09:33:41.154Z,2.55
2022-11-17T09:36:09.542Z,2.52
2022-11-17T09:38:38.435Z,2.51
2022-11-17T09:41:27.373Z,2.48
2022-11-17T09:44:25.758Z,2.48
2022-11-17T09:47:25.833Z,2.51
2022-11-17T09:49:58.754Z,2.50
2022-11-17T09:52:37.917Z,2.51
2022-11-17T09:55:08.581Z,2.54
2022-11-17T09:57:50.958Z,2.55
2022-11-17T10:00:22.851Z,2.56
2022-11-17T10:02:51.689Z,2.55
2022-11-17T10:05:35.465Z,2.53
2022-11-17T10:08:11.842Z,2.53
2022-11-17T10:10:45.926Z,2.56
2022-11-17T10:13:19.828Z,2.61
2022-11-17T10:15:50.872Z,2.65
2022-11-17T10:18:18.555Z,2.69
2022-11-17T10:20:46.326Z,2.71
2022-11-17T10:23:18.434Z,2.71
2022-11-17T10:25:49.392Z,2.76
2022-11-17T10:28:30.180Z,2.80
2022-11-17T10:31:10.498Z,2.84
2022-11-17T10:33:47.690Z,2.86
2022-11-17T10:36:19.963Z,2.85
2022-11-17T10:38:58.938Z,2.87
2022-11-17T10:41:39.039Z,2.91
2022-11-17T10:44:20.908Z,2.97
2022-11-17T10:47:01.985Z,3.03
2022-11-17T10:49:36.025Z,3.05
2022-11-17T10:52:16.599Z,3.05
2022-11-17T10:54:44.298Z,3.04
2022-11-17T10:57:20.137Z,3.06
2022-11-17T10:59:57.749Z,3.06
2022-11-17T11:02:36.080Z,3.03
2022-11-17T11:05:13.187Z,3.04
2022-11-17T11:07:41.680Z,3.12
2022-11-17T11:10:31.858Z,3.21
2022-11-17T11:13:45.768Z,3.36
2022-11-17T11:16:13.349Z,3.52
2022-11-17T11:18:40.978Z,3.59
2022-11-17T11:21:17.845Z,3.65
2022-11-17T11:23:48.332Z,3.69
2022-11-17T11:26:31.973Z,3.75
2022-11-17T11:29:17.944Z,3.77
2022-11-17T11:32:16.737Z,3.94
2022-11-17T11:35:17.029Z,4.10
2022-11-17T11:38:03.605Z,4.21
2022-11-17T11:40:49.697Z,4.38
2022-11-17T11:43:36.375Z,4.47
2022-11-17T11:46:19.849Z,4.50
2022-11-17T11:48:49.697Z,4.53
2022-11-17T11:51:33.309Z,4.58
2022-11-17T11:54:09.449Z,4.65
2022-11-17T11:56:46.040Z,4.79
2022-11-17T11:59:24.668Z,5.02
2022-11-17T12:01:59.644Z,5.34
2022-11-17T12:04:55.739Z,5.65
2022-11-17T12:07:42.305Z,5.91
2022-11-17T12:10:20.949Z,6.09
2022-11-17T12:12:49.574Z,6.21
2022-11-17T12:15:20.297Z,6.26
2022-11-17T12:18:12.628Z,6.19
2022-11-17T12:21:01.241Z,6.12
2022-11-17T12:23:47.659Z,6.07
2022-11-17T12:26:28.094Z,6.01
2022-11-17T12:29:28.691Z,5.90
2022-11-17T12:32:01.939Z,5.76
2022-11-17T12:34:36.758Z,5.64
2022-11-17T12:37:10.378Z,5.47
2022-11-17T12:39:58.584Z,5.38
2022-11-17T12:42:28.083Z,5.36
2022-11-17T12:44:56.587Z,5.34
2022-11-17T12:47:27.319Z,5.23
2022-11-17T12:50:37.458Z,5.15
2022-11-17T12:53:18.272Z,5.10
2022-11-17T12:56:07.712Z,5.06
2022-11-17T12:58:57.161Z,5.10
2022-11-17T13:01:55.601Z,5.17
2022-11-17T13:04:49.803Z,5.28
2022-11-17T13:07:25.783Z,5.49
2022-11-17T13:09:59.029Z,5.71
2022-11-17T13:12:29.077Z,5.92
2022-11-17T13:14:58.792Z,6.13
2022-11-17T13:17:32.659Z,6.34
2022-11-17T13:20:05.487Z,6.47
2022-11-17T13:22:36.482Z,6.40
2022-11-17T13:25:23.255Z,6.15
2022-11-17T13:27:57.207Z,6.01
2022-11-17T13:30:31.416Z,6.31
2022-11-17T13:33:03.864Z,6.81
2022-11-17T13:35:36.175Z,7.48
2022-11-17T13:38:26.631Z,8.32
2022-11-17T13:40:54.397Z,9.25
2022-11-17T13:43:24.384Z,9.93
2022-11-17T13:45:54.732Z,10.48
2022-11-17T13:48:39.944Z,10.97
2022-11-17T13:51:42.113Z,11.41
2022-11-17T13:54:13.167Z,11.79
2022-11-17T13:56:53.834Z,11.82
2022-11-17T13:59:24.071Z,11.84
2022-11-17T14:02:24.181Z,11.75
2022-11-17T14:05:10.731Z,11.51
2022-11-17T14:07:39.812Z,11.15
2022-11-17T14:10:31.724Z,10.78
2022-11-17T14:13:02.788Z,10.44
2022-11-17T14:15:34.508Z,10.31
2022-11-17T14:18:17.469Z,10.29
2022-11-17T14:20:45.105Z,10.28
2022-11-17T14:23:13.273Z,10.21
2022-11-17T14:25:43.510Z,10.02
2022-11-17T14:28:16.996Z,9.67
2022-11-17T14:30:49.548Z,9.06
2022-11-17T14:33:17.522Z,8.36
2022-11-17T14:35:48.150Z,7.72
2022-11-17T14:38:19.112Z,7.11
2022-11-17T14:40:49.253Z,6.53
2022-11-17T14:43:18.319Z,6.04
2022-11-17T14:45:46.182Z,5.60
2022-11-17T14:48:18.828Z,5.22
2022-11-17T14:50:48.164Z,4.85
2022-11-17T14:53:15.799Z,4.55
2022-11-17T14:55:43.334Z,4.24
2022-11-17T14:58:10.911Z,3.96
2022-11-17T15:00:38.451Z,3.68
2022-11-17T15:03:06.177Z,3.45
2022-11-17T15:05:33.908Z,3.22
2022-11-17T15:08:01.467Z,3.03
2022-11-17T15:10:29.013Z,2.85
2022-11-17T15:12:56.569Z,2.67
2022-11-17T15:15:24.187Z,2.49
2022-11-17T15:17:51.735Z,2.32
2022-11-17T15:20:19.431Z,2.17
2022-11-17T15:22:46.995Z,2.03
2022-11-17T15:25:14.539Z,1.90
2022-11-17T15:27:42.151Z,1.76
2022-11-17T15:30:11.091Z,1.63
2022-11-17T15:32:38.667Z,1.51
2022-11-17T15:35:06.730Z,1.39
2022-11-17T15:37:34.295Z,1.30
2022-11-17T15:40:02.102Z,1.21
2022-11-17T15:42:29.654Z,1.13
2022-11-17T15:44:57.225Z,1.06
2022-11-17T15:47:24.846Z,0.98
2022-11-17T15:49:58.381Z,0.91
2022-11-17T15:52:41.968Z,0.85
2022-11-17T15:55:14.252Z,0.78
2022-11-17T15:57:41.788Z,0.73
2022-11-17T16:00:10.317Z,0.66
2022-11-17T16:02:40.406Z,0.61
2022-11-17T16:05:08.205Z,0.54
2022-11-17T16:07:35.949Z,0.47
2022-11-17T16:10:03.833Z,0.41
2022-11-17T16:12:31.488Z,0.35
2022-11-17T16:14:59.051Z,0.28
2022-11-17T16:17:26.615Z,0.22
2022-11-17T16:19:54.287Z,0.17
2022-11-17T16:22:21.905Z,0.12
2022-11-17T16:24:49.482Z,0.06
2022-11-17T16:27:17.069Z,0.00
2022-11-17T16:29:44.621Z,-0.03
2022-11-17T16:32:12.214Z,-0.05
2022-11-17T16:34:41.444Z,-0.03
2022-11-17T16:37:09.054Z,-0.01
2022-11-17T16:39:36.674Z,0.01
2022-11-17T16:42:04.255Z,0.02
2022-11-17T16:44:31.906Z,0.00
2022-11-17T16:46:59.597Z,-0.01
2022-11-17T16:49:27.187Z,-0.02
2022-11-17T16:51:54.889Z,-0.04
2022-11-17T16:54:22.553Z,-0.06
2022-11-17T16:56:51.407Z,-0.08
2022-11-17T16:59:19.713Z,-0.10
2022-11-17T17:01:47.697Z,-0.12
2022-11-17T17:04:15.699Z,-0.17
2022-11-17T17:06:45.823Z,-0.19
2022-11-17T17:09:15.372Z,-0.24
2022-11-17T17:11:43.359Z,-0.28
2022-11-17T17:14:14.241Z,-0.33
2022-11-17T17:16:42.823Z,-0.37
2022-11-17T17:19:12.450Z,-0.40
2022-11-17T17:21:41.317Z,-0.43
2022-11-17T17:24:09.858Z,-0.46
2022-11-17T17:26:40.018Z,-0.51
2022-11-17T17:29:08.161Z,-0.55
2022-11-17T17:31:38.601Z,-0.58
2022-11-17T17:34:08.315Z,-0.62
2022-11-17T17:36:37.214Z,-0.65
2022-11-17T17:39:05.389Z,-0.67
2022-11-17T17:41:38.083Z,-0.65
2022-11-17T17:44:07.974Z,-0.62
2022-11-17T17:46:37.991Z,-0.58
2022-11-17T17:49:06.707Z,-0.55
2022-11-17T17:51:39.862Z,-0.52
2022-11-17T17:54:10.102Z,-0.51
2022-11-17T17:56:37.664Z,-0.52
2022-11-17T17:59:05.226Z,-0.53
2022-11-17T18:01:37.468Z,-0.55
2022-11-17T18:04:05.382Z,-0.57
2022-11-17T18:06:37.943Z,-0.60
2022-11-17T18:09:07.761Z,-0.62
2022-11-17T18:11:35.706Z,-0.67
2022-11-17T18:14:04.235Z,-0.70
2022-11-17T18:16:33.714Z,-0.73
2022-11-17T18:19:04.217Z,-0.77
2022-11-17T18:21:32.683Z,-0.81
2022-11-17T18:24:01.975Z,-0.86
2022-11-17T18:26:35.351Z,-0.88
2022-11-17T18:29:09.192Z,-0.92
2022-11-17T18:31:37.282Z,-0.96
2022-11-17T18:34:15.318Z,-0.97
2022-11-17T18:36:42.852Z,-0.95
2022-11-17T18:39:10.750Z,-0.93
2022-11-17T18:41:38.519Z,-0.91
2022-11-17T18:44:06.055Z,-0.92
2022-11-17T18:46:33.804Z,-0.92
2022-11-17T18:49:01.488Z,-0.92
2022-11-17T18:51:31.518Z,-0.93
2022-11-17T18:54:01.066Z,-0.93
2022-11-17T18:56:34.534Z,-0.96
2022-11-17T18:59:03.014Z,-0.98
2022-11-17T19:01:30.804Z,-1.01
2022-11-17T19:04:01.028Z,-1.02
2022-11-17T19:06:29.815Z,-1.04
2022-11-17T19:08:59.612Z,-1.06
2022-11-17T19:11:30.762Z,-1.09
2022-11-17T19:14:02.252Z,-1.12
2022-11-17T19:16:31.803Z,-1.16
2022-11-17T19:18:59.604Z,-1.18
2022-11-17T19:21:29.380Z,-1.18
2022-11-17T19:23:58.958Z,-1.15
2022-11-17T19:26:29.108Z,-1.14
2022-11-17T19:29:15.527Z,-1.13
2022-11-17T19:31:45.566Z,-1.12
2022-11-17T19:34:14.479Z,-1.12
2022-11-17T19:36:42.142Z,-1.13
2022-11-17T19:39:12.084Z,-1.15
2022-11-17T19:41:39.779Z,-1.18
2022-11-17T19:44:08.899Z,-1.20
2022-11-17T19:46:37.609Z,-1.22
2022-11-17T19:49:07.650Z,-1.26
2022-11-17T19:51:41.182Z,-1.29
2022-11-17T19:54:11.097Z,-1.33
2022-11-17T19:56:38.871Z,-1.36
2022-11-17T19:59:08.666Z,-1.39
2022-11-17T20:01:38.923Z,-1.43
2022-11-17T20:04:07.413Z,-1.48
2022-11-17T20:06:37.566Z,-1.51
2022-11-17T20:09:11.205Z,-1.52
2022-11-17T20:11:39.740Z,-1.51
2022-11-17T20:14:07.429Z,-1.51
2022-11-17T20:16:36.670Z,-1.48
2022-11-17T20:19:04.359Z,-1.45
2022-11-17T20:21:32.218Z,-1.43
2022-11-17T20:24:01.104Z,-1.41
2022-11-17T20:26:31.816Z,-1.42
2022-11-17T20:29:00.518Z,-1.44
2022-11-17T20:31:30.311Z,-1.47
2022-11-17T20:34:00.580Z,-1.48
2022-11-17T20:36:29.935Z,-1.51
2022-11-17T20:39:00.493Z,-1.54
2022-11-17T20:41:29.348Z,-1.56
2022-11-17T20:43:58.650Z,-1.59
2022-11-17T20:46:26.804Z,-1.62
2022-11-17T20:48:54.870Z,-1.65
2022-11-17T20:51:24.427Z,-1.68
2022-11-17T20:53:52.381Z,-1.70
2022-11-17T20:56:21.084Z,-1.73
2022-11-17T20:58:48.774Z,-1.76
2022-11-17T21:01:19.089Z,-1.78
2022-11-17T21:03:47.414Z,-1.80
2022-11-17T21:06:16.093Z,-1.80
2022-11-17T21:08:44.995Z,-1.78
2022-11-17T21:11:30.493Z,-1.78
2022-11-17T21:13:58.478Z,-1.76
2022-11-17T21:16:26.066Z,-1.75
2022-11-17T21:18:54.349Z,-1.75
2022-11-17T21:21:22.079Z,-1.76
2022-11-17T21:23:53.931Z,-1.77
2022-11-17T21:26:23.037Z,-1.79
2022-11-17T21:28:51.448Z,-1.82
2022-11-17T21:31:23.439Z,-1.85
2022-11-17T21:33:59.626Z,-1.89
2022-11-17T21:36:29.561Z,-1.94
2022-11-17T21:38:57.992Z,-1.99
2022-11-17T21:41:30.784Z,-2.02
2022-11-17T21:44:00.380Z,-2.06
2022-11-17T21:46:30.199Z,-2.09
2022-11-17T21:48:59.980Z,-2.10
2022-11-17T21:51:33.731Z,-2.07
2022-11-17T21:54:04.391Z,-2.01
2022-11-17T21:56:32.666Z,-1.95
2022-11-17T21:59:05.836Z,-1.89
2022-11-17T22:01:34.698Z,-1.86
2022-11-17T22:04:02.715Z,-1.81
2022-11-17T22:06:30.523Z,-1.78
2022-11-17T22:08:59.609Z,-1.73
2022-11-17T22:11:36.903Z,-1.68
2022-11-17T22:14:16.279Z,-1.63
2022-11-17T22:16:46.868Z,-1.57
2022-11-17T22:19:16.209Z,-1.52
2022-11-17T22:21:44.709Z,-1.46
2022-11-17T22:24:13.007Z,-1.42
2022-11-17T22:26:43.341Z,-1.38
2022-11-17T22:29:14.498Z,-1.35
2022-11-17T22:31:42.347Z,-1.33
2022-11-17T22:34:11.032Z,-1.32
2022-11-17T22:36:39.016Z,-1.28
2022-11-17T22:39:06.881Z,-1.23
2022-11-17T22:41:34.929Z,-1.15
2022-11-17T22:44:02.784Z,-1.08
2022-11-17T22:46:30.395Z,-1.00
2022-11-17T22:48:58.849Z,-0.93
2022-11-17T22:51:43.367Z,-0.86
2022-11-17T22:54:11.306Z,-0.81
2022-11-17T22:56:39.211Z,-0.78
2022-11-17T22:59:07.003Z,-0.76
2022-11-17T23:01:35.219Z,-0.73
2022-11-17T23:04:03.236Z,-0.70
2022-11-17T23:06:30.855Z,-0.68
2022-11-17T23:08:58.868Z,-0.66
2022-11-17T23:11:38.477Z,-0.65
2022-11-17T23:14:09.446Z,-0.64
2022-11-17T23:16:38.219Z,-0.62
2022-11-17T23:19:06.812Z,-0.61
2022-11-17T23:21:34.471Z,-0.58
2022-11-17T23:24:02.217Z,-0.53
2022-11-17T23:26:29.850Z,-0.46
2022-11-17T23:28:58.161Z,-0.40
2022-11-17T23:31:27.813Z,-0.32
2022-11-17T23:33:56.175Z,-0.28
2022-11-17T23:36:24.151Z,-0.26
2022-11-17T23:38:52.486Z,-0.23
2022-11-17T23:41:21.091Z,-0.20
2022-11-17T23:43:53.947Z,-0.16
2022-11-17T23:46:25.202Z,-0.14
2022-11-17T23:48:54.141Z,-0.13
2022-11-17T23:51:24.433Z,-0.13
2022-11-17T23:53:52.534Z,-0.12
2022-11-17T23:56:20.724Z,-0.12
2022-11-17T23:58:49.260Z,-0.08
